sensor_id;sensor_type;location;lat;lon;timestamp;pressure;altitude;pressure_sealevel;temperature;humidity
36520;BME280;40269;46.742;9.778;2023-01-28T00:01:53;85243.87;;;-5.76;35.85
36520;BME280;40269;46.742;9.778;2023-01-28T00:04:20;85242.75;;;-4.92;34.47
36520;BME280;40269;46.742;9.778;2023-01-28T00:06:47;85244.09;;;-4.90;33.67
36520;BME280;40269;46.742;9.778;2023-01-28T00:09:15;85241.08;;;-6.12;35.09
36520;BME280;40269;46.742;9.778;2023-01-28T00:11:41;85243.54;;;-8.99;39.95
36520;BME280;40269;46.742;9.778;2023-01-28T00:14:09;85242.72;;;-5.43;35.35
36520;BME280;40269;46.742;9.778;2023-01-28T00:16:36;85238.00;;;-5.35;34.10
36520;BME280;40269;46.742;9.778;2023-01-28T00:19:03;85234.95;;;-5.41;34.35
36520;BME280;40269;46.742;9.778;2023-01-28T00:21:30;85235.73;;;-7.46;36.86
36520;BME280;40269;46.742;9.778;2023-01-28T00:23:57;85232.03;;;-7.49;36.67
36520;BME280;40269;46.742;9.778;2023-01-28T00:26:25;85232.25;;;-5.57;34.01
36520;BME280;40269;46.742;9.778;2023-01-28T00:28:52;85233.91;;;-5.73;34.11
36520;BME280;40269;46.742;9.778;2023-01-28T00:31:21;85228.36;;;-7.33;35.79
36520;BME280;40269;46.742;9.778;2023-01-28T00:33:49;85224.92;;;-6.25;35.36
36520;BME280;40269;46.742;9.778;2023-01-28T00:36:17;85223.18;;;-5.35;33.62
36520;BME280;40269;46.742;9.778;2023-01-28T00:38:48;85218.25;;;-5.76;34.07
36520;BME280;40269;46.742;9.778;2023-01-28T00:41:18;85225.84;;;-6.70;36.60
36520;BME280;40269;46.742;9.778;2023-01-28T00:43:45;85225.33;;;-6.07;35.31
36520;BME280;40269;46.742;9.778;2023-01-28T00:46:12;85234.48;;;-10.26;41.86
36520;BME280;40269;46.742;9.778;2023-01-28T00:48:40;85236.37;;;-11.41;45.28
36520;BME280;40269;46.742;9.778;2023-01-28T00:51:09;85244.39;;;-9.64;41.65
36520;BME280;40269;46.742;9.778;2023-01-28T00:53:37;85240.28;;;-8.21;38.51
36520;BME280;40269;46.742;9.778;2023-01-28T00:56:05;85243.49;;;-9.03;40.32
36520;BME280;40269;46.742;9.778;2023-01-28T00:58:33;85237.77;;;-8.46;38.22
36520;BME280;40269;46.742;9.778;2023-01-28T01:01:06;85242.38;;;-9.40;39.96
36520;BME280;40269;46.742;9.778;2023-01-28T01:03:33;85239.68;;;-7.28;36.58
36520;BME280;40269;46.742;9.778;2023-01-28T01:06:00;85238.33;;;-7.43;36.72
36520;BME280;40269;46.742;9.778;2023-01-28T01:08:27;85241.17;;;-8.85;37.59
36520;BME280;40269;46.742;9.778;2023-01-28T01:10:57;85244.56;;;-10.06;40.46
36520;BME280;40269;46.742;9.778;2023-01-28T01:13:25;85242.39;;;-7.74;37.05
36520;BME280;40269;46.742;9.778;2023-01-28T01:16:00;85242.62;;;-6.53;34.80
36520;BME280;40269;46.742;9.778;2023-01-28T01:18:27;85248.35;;;-6.75;34.39
36520;BME280;40269;46.742;9.778;2023-01-28T01:20:54;85251.21;;;-7.31;34.83
36520;BME280;40269;46.742;9.778;2023-01-28T01:23:21;85250.60;;;-6.89;35.00
36520;BME280;40269;46.742;9.778;2023-01-28T01:25:48;85255.22;;;-7.77;35.91
36520;BME280;40269;46.742;9.778;2023-01-28T01:28:15;85254.09;;;-9.87;38.98
36520;BME280;40269;46.742;9.778;2023-01-28T01:30:42;85255.83;;;-10.06;40.98
36520;BME280;40269;46.742;9.778;2023-01-28T01:33:09;85252.58;;;-8.94;39.10
36520;BME280;40269;46.742;9.778;2023-01-28T01:35:36;85255.28;;;-9.98;40.82
36520;BME280;40269;46.742;9.778;2023-01-28T01:38:03;85255.56;;;-11.53;44.33
36520;BME280;40269;46.742;9.778;2023-01-28T01:40:30;85253.42;;;-8.51;38.19
36520;BME280;40269;46.742;9.778;2023-01-28T01:42:57;85248.93;;;-8.46;38.26
36520;BME280;40269;46.742;9.778;2023-01-28T01:45:25;85248.63;;;-7.25;35.81
36520;BME280;40269;46.742;9.778;2023-01-28T01:47:57;85249.74;;;-9.84;40.52
36520;BME280;40269;46.742;9.778;2023-01-28T01:50:29;85255.54;;;-11.34;41.89
36520;BME280;40269;46.742;9.778;2023-01-28T01:53:00;85260.79;;;-9.48;40.09
36520;BME280;40269;46.742;9.778;2023-01-28T01:55:31;85271.22;;;-10.89;41.52
36520;BME280;40269;46.742;9.778;2023-01-28T01:58:04;85272.80;;;-9.76;39.06
36520;BME280;40269;46.742;9.778;2023-01-28T02:00:32;85272.79;;;-10.27;40.23
36520;BME280;40269;46.742;9.778;2023-01-28T02:03:00;85274.94;;;-8.08;36.89
36520;BME280;40269;46.742;9.778;2023-01-28T02:05:28;85273.13;;;-9.48;37.22
36520;BME280;40269;46.742;9.778;2023-01-28T02:07:57;85270.80;;;-11.64;43.18
36520;BME280;40269;46.742;9.778;2023-01-28T02:10:25;85269.64;;;-8.68;38.49
36520;BME280;40269;46.742;9.778;2023-01-28T02:12:55;85268.53;;;-7.73;36.40
36520;BME280;40269;46.742;9.778;2023-01-28T02:15:24;85270.64;;;-8.32;36.97
36520;BME280;40269;46.742;9.778;2023-01-28T02:17:52;85277.99;;;-10.60;40.79
36520;BME280;40269;46.742;9.778;2023-01-28T02:20:21;85271.05;;;-7.97;37.70
36520;BME280;40269;46.742;9.778;2023-01-28T02:23:06;85267.29;;;-7.75;36.86
36520;BME280;40269;46.742;9.778;2023-01-28T02:26:00;85270.24;;;-8.19;37.25
36520;BME280;40269;46.742;9.778;2023-01-28T02:28:31;85268.60;;;-8.10;37.42
36520;BME280;40269;46.742;9.778;2023-01-28T02:31:05;85265.23;;;-7.89;37.33
36520;BME280;40269;46.742;9.778;2023-01-28T02:33:40;85268.81;;;-8.01;37.71
36520;BME280;40269;46.742;9.778;2023-01-28T02:36:15;85273.01;;;-8.61;39.03
36520;BME280;40269;46.742;9.778;2023-01-28T02:38:47;85279.61;;;-8.73;37.80
36520;BME280;40269;46.742;9.778;2023-01-28T02:41:20;85289.24;;;-9.56;40.51
36520;BME280;40269;46.742;9.778;2023-01-28T02:43:48;85284.26;;;-10.70;43.33
36520;BME280;40269;46.742;9.778;2023-01-28T02:46:19;85283.51;;;-10.51;41.54
36520;BME280;40269;46.742;9.778;2023-01-28T02:48:47;85272.70;;;-7.76;37.38
36520;BME280;40269;46.742;9.778;2023-01-28T02:51:21;85284.15;;;-10.77;41.52
36520;BME280;40269;46.742;9.778;2023-01-28T02:54:00;85283.02;;;-9.09;39.78
36520;BME280;40269;46.742;9.778;2023-01-28T02:56:34;85279.28;;;-10.65;42.78
36520;BME280;40269;46.742;9.778;2023-01-28T02:59:10;85274.80;;;-9.90;41.12
36520;BME280;40269;46.742;9.778;2023-01-28T03:01:42;85283.37;;;-10.37;40.78
36520;BME280;40269;46.742;9.778;2023-01-28T03:04:19;85286.83;;;-10.41;40.84
36520;BME280;40269;46.742;9.778;2023-01-28T03:06:52;85283.62;;;-12.50;45.41
36520;BME280;40269;46.742;9.778;2023-01-28T03:09:21;85280.65;;;-11.56;44.50
36520;BME280;40269;46.742;9.778;2023-01-28T03:11:53;85283.08;;;-8.88;40.02
36520;BME280;40269;46.742;9.778;2023-01-28T03:14:21;85282.07;;;-7.97;37.50
36520;BME280;40269;46.742;9.778;2023-01-28T03:16:50;85283.91;;;-11.97;44.41
36520;BME280;40269;46.742;9.778;2023-01-28T03:19:19;85287.91;;;-11.46;44.27
36520;BME280;40269;46.742;9.778;2023-01-28T03:21:47;85283.53;;;-9.06;39.50
36520;BME280;40269;46.742;9.778;2023-01-28T03:24:19;85285.86;;;-8.49;38.30
36520;BME280;40269;46.742;9.778;2023-01-28T03:26:50;85285.66;;;-9.74;39.46
36520;BME280;40269;46.742;9.778;2023-01-28T03:29:21;85280.09;;;-7.88;37.07
36520;BME280;40269;46.742;9.778;2023-01-28T03:31:50;85281.07;;;-8.50;36.89
36520;BME280;40269;46.742;9.778;2023-01-28T03:34:20;85284.35;;;-9.12;38.17
36520;BME280;40269;46.742;9.778;2023-01-28T03:36:48;85294.29;;;-10.00;39.98
36520;BME280;40269;46.742;9.778;2023-01-28T03:39:17;85292.85;;;-8.19;36.69
36520;BME280;40269;46.742;9.778;2023-01-28T03:41:56;85294.23;;;-11.83;42.87
36520;BME280;40269;46.742;9.778;2023-01-28T03:44:24;85289.59;;;-11.40;42.79
36520;BME280;40269;46.742;9.778;2023-01-28T03:46:52;85289.82;;;-10.50;41.06
36520;BME280;40269;46.742;9.778;2023-01-28T03:49:18;85293.45;;;-9.06;37.60
36520;BME280;40269;46.742;9.778;2023-01-28T03:51:46;85293.10;;;-11.99;43.37
36520;BME280;40269;46.742;9.778;2023-01-28T03:54:13;85300.24;;;-9.90;39.47
36520;BME280;40269;46.742;9.778;2023-01-28T03:56:40;85304.84;;;-8.60;37.69
36520;BME280;40269;46.742;9.778;2023-01-28T03:59:07;85309.03;;;-11.03;39.59
36520;BME280;40269;46.742;9.778;2023-01-28T04:01:33;85301.96;;;-12.08;42.51
36520;BME280;40269;46.742;9.778;2023-01-28T04:04:00;85303.78;;;-11.48;41.10
36520;BME280;40269;46.742;9.778;2023-01-28T04:06:27;85310.36;;;-12.61;43.33
36520;BME280;40269;46.742;9.778;2023-01-28T04:08:54;85312.89;;;-13.40;45.86
36520;BME280;40269;46.742;9.778;2023-01-28T04:11:21;85312.73;;;-10.43;41.17
36520;BME280;40269;46.742;9.778;2023-01-28T04:13:49;85316.83;;;-9.51;38.50
36520;BME280;40269;46.742;9.778;2023-01-28T04:16:17;85324.61;;;-13.00;44.76
36520;BME280;40269;46.742;9.778;2023-01-28T04:18:44;85325.11;;;-13.14;47.25
36520;BME280;40269;46.742;9.778;2023-01-28T04:21:11;85324.69;;;-13.12;45.46
36520;BME280;40269;46.742;9.778;2023-01-28T04:23:39;85328.51;;;-13.95;46.99
36520;BME280;40269;46.742;9.778;2023-01-28T04:26:06;85324.35;;;-14.72;48.80
36520;BME280;40269;46.742;9.778;2023-01-28T04:28:33;85324.09;;;-14.95;50.86
36520;BME280;40269;46.742;9.778;2023-01-28T04:31:00;85321.15;;;-12.81;45.62
36520;BME280;40269;46.742;9.778;2023-01-28T04:33:27;85322.80;;;-11.31;41.90
36520;BME280;40269;46.742;9.778;2023-01-28T04:35:54;85324.36;;;-13.15;44.91
36520;BME280;40269;46.742;9.778;2023-01-28T04:38:22;85324.79;;;-14.16;46.02
36520;BME280;40269;46.742;9.778;2023-01-28T04:40:49;85317.95;;;-11.76;42.44
36520;BME280;40269;46.742;9.778;2023-01-28T04:43:17;85318.81;;;-11.40;41.53
36520;BME280;40269;46.742;9.778;2023-01-28T04:45:45;85331.18;;;-14.15;46.25
36520;BME280;40269;46.742;9.778;2023-01-28T04:48:12;85328.21;;;-12.71;44.96
36520;BME280;40269;46.742;9.778;2023-01-28T04:50:40;85332.53;;;-10.56;40.28
36520;BME280;40269;46.742;9.778;2023-01-28T04:53:07;85331.71;;;-11.15;39.55
36520;BME280;40269;46.742;9.778;2023-01-28T04:55:34;85323.76;;;-10.50;38.16
36520;BME280;40269;46.742;9.778;2023-01-28T04:58:01;85333.28;;;-13.46;44.55
36520;BME280;40269;46.742;9.778;2023-01-28T05:00:28;85331.24;;;-13.46;44.54
36520;BME280;40269;46.742;9.778;2023-01-28T05:02:55;85329.41;;;-13.81;46.43
36520;BME280;40269;46.742;9.778;2023-01-28T05:05:23;85329.01;;;-13.93;46.20
36520;BME280;40269;46.742;9.778;2023-01-28T05:07:51;85326.60;;;-11.72;41.87
36520;BME280;40269;46.742;9.778;2023-01-28T05:10:18;85333.24;;;-10.94;39.68
36520;BME280;40269;46.742;9.778;2023-01-28T05:12:47;85338.99;;;-12.87;43.20
36520;BME280;40269;46.742;9.778;2023-01-28T05:15:14;85341.22;;;-13.24;43.90
36520;BME280;40269;46.742;9.778;2023-01-28T05:17:41;85340.46;;;-13.37;43.83
36520;BME280;40269;46.742;9.778;2023-01-28T05:20:10;85342.68;;;-14.57;45.97
36520;BME280;40269;46.742;9.778;2023-01-28T05:22:37;85336.58;;;-12.03;42.01
36520;BME280;40269;46.742;9.778;2023-01-28T05:25:06;85339.88;;;-12.44;41.69
36520;BME280;40269;46.742;9.778;2023-01-28T05:27:34;85341.58;;;-11.84;40.63
36520;BME280;40269;46.742;9.778;2023-01-28T05:30:01;85343.65;;;-10.57;38.39
36520;BME280;40269;46.742;9.778;2023-01-28T05:32:28;85350.73;;;-11.44;38.14
36520;BME280;40269;46.742;9.778;2023-01-28T05:34:55;85356.54;;;-11.85;38.63
36520;BME280;40269;46.742;9.778;2023-01-28T05:37:23;85360.31;;;-12.64;41.93
36520;BME280;40269;46.742;9.778;2023-01-28T05:39:50;85362.47;;;-10.80;37.94
36520;BME280;40269;46.742;9.778;2023-01-28T05:42:17;85367.34;;;-10.12;36.86
36520;BME280;40269;46.742;9.778;2023-01-28T05:44:44;85373.78;;;-11.58;37.84
36520;BME280;40269;46.742;9.778;2023-01-28T05:47:12;85383.44;;;-14.62;43.08
36520;BME280;40269;46.742;9.778;2023-01-28T05:49:39;85391.09;;;-14.44;43.21
36520;BME280;40269;46.742;9.778;2023-01-28T05:52:06;85388.18;;;-11.90;38.24
36520;BME280;40269;46.742;9.778;2023-01-28T05:54:33;85390.87;;;-12.12;38.93
36520;BME280;40269;46.742;9.778;2023-01-28T05:57:00;85403.54;;;-14.62;43.20
36520;BME280;40269;46.742;9.778;2023-01-28T05:59:27;85396.87;;;-11.55;37.99
36520;BME280;40269;46.742;9.778;2023-01-28T06:01:55;85402.29;;;-10.43;36.13
36520;BME280;40269;46.742;9.778;2023-01-28T06:04:22;85402.57;;;-10.73;36.04
36520;BME280;40269;46.742;9.778;2023-01-28T06:06:49;85404.51;;;-10.66;36.72
36520;BME280;40269;46.742;9.778;2023-01-28T06:09:16;85404.03;;;-10.45;35.69
36520;BME280;40269;46.742;9.778;2023-01-28T06:11:44;85415.16;;;-14.76;43.58
36520;BME280;40269;46.742;9.778;2023-01-28T06:14:10;85411.90;;;-15.39;46.38
36520;BME280;40269;46.742;9.778;2023-01-28T06:16:38;85414.93;;;-15.83;47.68
36520;BME280;40269;46.742;9.778;2023-01-28T06:19:05;85416.37;;;-14.14;43.54
36520;BME280;40269;46.742;9.778;2023-01-28T06:21:32;85417.11;;;-17.25;48.83
36520;BME280;40269;46.742;9.778;2023-01-28T06:23:59;85414.45;;;-16.22;49.79
36520;BME280;40269;46.742;9.778;2023-01-28T06:26:27;85414.75;;;-17.07;50.54
36520;BME280;40269;46.742;9.778;2023-01-28T06:28:54;85416.13;;;-14.85;46.92
36520;BME280;40269;46.742;9.778;2023-01-28T06:31:21;85420.23;;;-14.82;45.15
36520;BME280;40269;46.742;9.778;2023-01-28T06:33:48;85425.22;;;-16.47;48.43
36520;BME280;40269;46.742;9.778;2023-01-28T06:36:15;85428.64;;;-16.23;48.05
36520;BME280;40269;46.742;9.778;2023-01-28T06:38:43;85434.97;;;-15.30;45.66
36520;BME280;40269;46.742;9.778;2023-01-28T06:41:10;85438.78;;;-15.84;45.66
36520;BME280;40269;46.742;9.778;2023-01-28T06:43:37;85437.48;;;-12.57;40.09
36520;BME280;40269;46.742;9.778;2023-01-28T06:46:05;85441.92;;;-12.72;39.65
36520;BME280;40269;46.742;9.778;2023-01-28T06:48:32;85439.83;;;-11.95;37.94
36520;BME280;40269;46.742;9.778;2023-01-28T06:50:59;85444.50;;;-14.04;40.70
36520;BME280;40269;46.742;9.778;2023-01-28T06:53:27;85450.40;;;-13.77;40.61
36520;BME280;40269;46.742;9.778;2023-01-28T06:55:54;85452.93;;;-14.95;43.04
36520;BME280;40269;46.742;9.778;2023-01-28T06:58:21;85463.56;;;-17.82;50.17
36520;BME280;40269;46.742;9.778;2023-01-28T07:00:49;85459.15;;;-15.59;47.02
36520;BME280;40269;46.742;9.778;2023-01-28T07:03:16;85459.93;;;-13.93;42.48
36520;BME280;40269;46.742;9.778;2023-01-28T07:05:43;85461.51;;;-13.45;41.11
36520;BME280;40269;46.742;9.778;2023-01-28T07:08:10;85462.53;;;-14.03;42.46
36520;BME280;40269;46.742;9.778;2023-01-28T07:10:37;85465.58;;;-15.60;46.42
36520;BME280;40269;46.742;9.778;2023-01-28T07:13:04;85468.25;;;-14.28;42.86
36520;BME280;40269;46.742;9.778;2023-01-28T07:15:31;85479.58;;;-18.07;50.79
36520;BME280;40269;46.742;9.778;2023-01-28T07:17:58;85473.22;;;-15.31;46.69
36520;BME280;40269;46.742;9.778;2023-01-28T07:20:26;85472.47;;;-13.62;41.53
36520;BME280;40269;46.742;9.778;2023-01-28T07:22:52;85472.43;;;-16.35;46.64
36520;BME280;40269;46.742;9.778;2023-01-28T07:25:19;85475.96;;;-17.34;51.33
36520;BME280;40269;46.742;9.778;2023-01-28T07:27:48;85468.12;;;-15.92;47.50
36520;BME280;40269;46.742;9.778;2023-01-28T07:30:17;85467.72;;;-17.39;49.09
36520;BME280;40269;46.742;9.778;2023-01-28T07:32:44;85465.50;;;-15.38;45.18
36520;BME280;40269;46.742;9.778;2023-01-28T07:35:12;85467.81;;;-14.03;43.18
36520;BME280;40269;46.742;9.778;2023-01-28T07:37:39;85471.14;;;-16.91;46.61
36520;BME280;40269;46.742;9.778;2023-01-28T07:40:08;85467.83;;;-14.92;45.68
36520;BME280;40269;46.742;9.778;2023-01-28T07:42:35;85469.37;;;-16.38;47.62
36520;BME280;40269;46.742;9.778;2023-01-28T07:45:02;85472.44;;;-15.55;45.28
36520;BME280;40269;46.742;9.778;2023-01-28T07:47:29;85474.29;;;-14.51;43.04
36520;BME280;40269;46.742;9.778;2023-01-28T07:49:56;85472.58;;;-13.30;41.63
36520;BME280;40269;46.742;9.778;2023-01-28T07:52:24;85473.80;;;-13.83;42.27
36520;BME280;40269;46.742;9.778;2023-01-28T07:54:51;85478.15;;;-16.72;47.70
36520;BME280;40269;46.742;9.778;2023-01-28T07:57:18;85477.33;;;-15.65;47.18
36520;BME280;40269;46.742;9.778;2023-01-28T07:59:45;85477.96;;;-17.09;49.73
36520;BME280;40269;46.742;9.778;2023-01-28T08:02:12;85479.81;;;-13.47;42.78
36520;BME280;40269;46.742;9.778;2023-01-28T08:04:39;85482.78;;;-14.29;43.33
36520;BME280;40269;46.742;9.778;2023-01-28T08:07:07;85486.72;;;-13.98;42.93
36520;BME280;40269;46.742;9.778;2023-01-28T08:09:34;85492.28;;;-15.76;45.93
36520;BME280;40269;46.742;9.778;2023-01-28T08:12:02;85493.13;;;-13.41;40.57
36520;BME280;40269;46.742;9.778;2023-01-28T08:14:28;85499.54;;;-16.37;46.13
36520;BME280;40269;46.742;9.778;2023-01-28T08:16:56;85504.20;;;-17.96;50.41
36520;BME280;40269;46.742;9.778;2023-01-28T08:19:23;85509.30;;;-17.30;50.16
36520;BME280;40269;46.742;9.778;2023-01-28T08:21:50;85504.22;;;-15.47;45.67
36520;BME280;40269;46.742;9.778;2023-01-28T08:24:18;85503.89;;;-14.99;43.63
36520;BME280;40269;46.742;9.778;2023-01-28T08:26:47;85506.98;;;-12.88;40.29
36520;BME280;40269;46.742;9.778;2023-01-28T08:29:14;85509.44;;;-11.90;37.55
36520;BME280;40269;46.742;9.778;2023-01-28T08:31:41;85512.72;;;-12.56;38.29
36520;BME280;40269;46.742;9.778;2023-01-28T08:34:08;85517.58;;;-11.44;36.42
36520;BME280;40269;46.742;9.778;2023-01-28T08:36:36;85515.37;;;-11.16;35.31
36520;BME280;40269;46.742;9.778;2023-01-28T08:39:03;85522.20;;;-14.86;40.80
36520;BME280;40269;46.742;9.778;2023-01-28T08:41:30;85526.36;;;-15.30;42.13
36520;BME280;40269;46.742;9.778;2023-01-28T08:43:57;85527.84;;;-14.65;41.55
36520;BME280;40269;46.742;9.778;2023-01-28T08:46:25;85531.02;;;-13.35;40.62
36520;BME280;40269;46.742;9.778;2023-01-28T08:48:52;85535.17;;;-13.15;40.08
36520;BME280;40269;46.742;9.778;2023-01-28T08:51:19;85533.24;;;-15.01;42.73
36520;BME280;40269;46.742;9.778;2023-01-28T08:53:46;85534.72;;;-14.68;41.62
36520;BME280;40269;46.742;9.778;2023-01-28T08:56:13;85531.63;;;-12.81;38.89
36520;BME280;40269;46.742;9.778;2023-01-28T08:58:41;85536.27;;;-12.35;38.36
36520;BME280;40269;46.742;9.778;2023-01-28T09:01:08;85532.26;;;-11.41;36.74
36520;BME280;40269;46.742;9.778;2023-01-28T09:03:35;85527.12;;;-10.55;35.78
36520;BME280;40269;46.742;9.778;2023-01-28T09:06:03;85527.14;;;-10.36;35.52
36520;BME280;40269;46.742;9.778;2023-01-28T09:08:30;85525.03;;;-10.71;35.70
36520;BME280;40269;46.742;9.778;2023-01-28T09:10:58;85518.49;;;-9.44;34.68
36520;BME280;40269;46.742;9.778;2023-01-28T09:13:26;85519.05;;;-9.52;34.48
36520;BME280;40269;46.742;9.778;2023-01-28T09:15:53;85515.53;;;-9.67;34.38
36520;BME280;40269;46.742;9.778;2023-01-28T09:18:20;85516.97;;;-9.70;34.78
36520;BME280;40269;46.742;9.778;2023-01-28T09:20:47;85522.49;;;-10.02;35.10
36520;BME280;40269;46.742;9.778;2023-01-28T09:23:14;85528.43;;;-11.62;38.21
36520;BME280;40269;46.742;9.778;2023-01-28T09:25:42;85527.25;;;-11.10;38.58
36520;BME280;40269;46.742;9.778;2023-01-28T09:28:09;85532.37;;;-9.60;35.94
36520;BME280;40269;46.742;9.778;2023-01-28T09:30:36;85526.47;;;-9.12;34.60
36520;BME280;40269;46.742;9.778;2023-01-28T09:33:04;85522.85;;;-10.22;36.31
36520;BME280;40269;46.742;9.778;2023-01-28T09:35:32;85522.84;;;-9.19;36.79
36520;BME280;40269;46.742;9.778;2023-01-28T09:37:59;85520.27;;;-8.02;36.86
36520;BME280;40269;46.742;9.778;2023-01-28T09:40:33;85516.52;;;-7.29;38.59
36520;BME280;40269;46.742;9.778;2023-01-28T09:43:15;85522.32;;;-8.02;36.04
36520;BME280;40269;46.742;9.778;2023-01-28T09:45:47;85521.77;;;-8.08;39.30
36520;BME280;40269;46.742;9.778;2023-01-28T09:48:16;85518.86;;;-8.70;39.00
36520;BME280;40269;46.742;9.778;2023-01-28T09:50:46;85519.53;;;-8.68;39.10
36520;BME280;40269;46.742;9.778;2023-01-28T09:53:19;85508.95;;;-5.72;34.06
36520;BME280;40269;46.742;9.778;2023-01-28T09:55:48;85504.43;;;-4.80;32.63
36520;BME280;40269;46.742;9.778;2023-01-28T09:58:18;85502.27;;;-4.38;31.12
36520;BME280;40269;46.742;9.778;2023-01-28T10:00:52;85500.77;;;-3.98;31.84
36520;BME280;40269;46.742;9.778;2023-01-28T10:03:33;85499.32;;;-5.27;33.96
36520;BME280;40269;46.742;9.778;2023-01-28T10:06:11;85500.37;;;-4.22;32.12
36520;BME280;40269;46.742;9.778;2023-01-28T10:09:00;85496.72;;;-4.47;31.91
36520;BME280;40269;46.742;9.778;2023-01-28T10:11:42;85497.47;;;-2.99;29.05
36520;BME280;40269;46.742;9.778;2023-01-28T10:14:20;85496.91;;;-4.47;32.07
36520;BME280;40269;46.742;9.778;2023-01-28T10:16:58;85498.29;;;-5.15;36.77
36520;BME280;40269;46.742;9.778;2023-01-28T10:19:30;85495.97;;;-4.27;34.35
36520;BME280;40269;46.742;9.778;2023-01-28T10:22:02;85496.19;;;-4.19;33.73
36520;BME280;40269;46.742;9.778;2023-01-28T10:24:33;85495.60;;;-4.28;33.71
36520;BME280;40269;46.742;9.778;2023-01-28T10:27:02;85492.35;;;-3.44;32.47
36520;BME280;40269;46.742;9.778;2023-01-28T10:29:32;85487.11;;;-0.72;27.17
36520;BME280;40269;46.742;9.778;2023-01-28T10:32:05;85485.77;;;0.25;28.47
36520;BME280;40269;46.742;9.778;2023-01-28T10:34:40;85480.47;;;-0.86;28.08
36520;BME280;40269;46.742;9.778;2023-01-28T10:37:08;85478.33;;;1.35;26.91
36520;BME280;40269;46.742;9.778;2023-01-28T10:39:38;85475.78;;;2.24;27.15
36520;BME280;40269;46.742;9.778;2023-01-28T10:42:16;85466.83;;;3.68;23.69
36520;BME280;40269;46.742;9.778;2023-01-28T10:44:47;85471.09;;;-3.40;29.54
36520;BME280;40269;46.742;9.778;2023-01-28T10:47:24;85468.92;;;-2.71;30.62
36520;BME280;40269;46.742;9.778;2023-01-28T10:49:55;85469.77;;;-4.42;32.39
36520;BME280;40269;46.742;9.778;2023-01-28T10:52:23;85465.31;;;-3.48;31.63
36520;BME280;40269;46.742;9.778;2023-01-28T10:54:58;85461.14;;;-0.31;26.68
36520;BME280;40269;46.742;9.778;2023-01-28T10:57:26;85460.15;;;-0.13;26.62
36520;BME280;40269;46.742;9.778;2023-01-28T10:59:55;85462.25;;;-3.08;29.92
36520;BME280;40269;46.742;9.778;2023-01-28T11:02:27;85459.10;;;-1.94;31.36
36520;BME280;40269;46.742;9.778;2023-01-28T11:05:05;85452.18;;;-0.72;28.83
36520;BME280;40269;46.742;9.778;2023-01-28T11:07:32;85457.64;;;-3.48;31.81
36520;BME280;40269;46.742;9.778;2023-01-28T11:09:59;85460.46;;;-4.00;32.70
36520;BME280;40269;46.742;9.778;2023-01-28T11:12:27;85450.12;;;-0.77;28.89
36520;BME280;40269;46.742;9.778;2023-01-28T11:14:56;85447.28;;;0.41;26.68
36520;BME280;40269;46.742;9.778;2023-01-28T11:17:25;85445.42;;;2.01;25.35
36520;BME280;40269;46.742;9.778;2023-01-28T11:19:55;85446.48;;;-1.44;29.64
36520;BME280;40269;46.742;9.778;2023-01-28T11:22:29;85444.23;;;-0.37;27.22
36520;BME280;40269;46.742;9.778;2023-01-28T11:24:58;85443.31;;;-2.65;28.76
36520;BME280;40269;46.742;9.778;2023-01-28T11:27:28;85440.42;;;-1.19;31.19
36520;BME280;40269;46.742;9.778;2023-01-28T11:29:56;85441.51;;;0.19;27.89
36520;BME280;40269;46.742;9.778;2023-01-28T11:32:25;85442.39;;;0.85;26.06
36520;BME280;40269;46.742;9.778;2023-01-28T11:34:54;85446.26;;;1.52;25.13
36520;BME280;40269;46.742;9.778;2023-01-28T11:37:23;85445.91;;;-2.25;28.93
36520;BME280;40269;46.742;9.778;2023-01-28T11:40:00;85449.88;;;0.11;26.68
36520;BME280;40269;46.742;9.778;2023-01-28T11:42:27;85444.84;;;1.61;24.61
36520;BME280;40269;46.742;9.778;2023-01-28T11:44:56;85442.08;;;-0.22;27.43
36520;BME280;40269;46.742;9.778;2023-01-28T11:47:33;85440.53;;;-0.04;28.26
36520;BME280;40269;46.742;9.778;2023-01-28T11:50:14;85432.29;;;0.94;27.89
36520;BME280;40269;46.742;9.778;2023-01-28T11:52:54;85437.21;;;-0.09;26.99
36520;BME280;40269;46.742;9.778;2023-01-28T11:55:36;85436.30;;;1.57;25.63
36520;BME280;40269;46.742;9.778;2023-01-28T11:58:17;85433.70;;;0.50;26.72
36520;BME280;40269;46.742;9.778;2023-01-28T12:00:51;85431.12;;;-0.71;26.11
36520;BME280;40269;46.742;9.778;2023-01-28T12:03:36;85425.69;;;-0.31;27.11
36520;BME280;40269;46.742;9.778;2023-01-28T12:06:17;85424.92;;;-1.27;30.85
36520;BME280;40269;46.742;9.778;2023-01-28T12:08:57;85424.76;;;0.14;25.78
36520;BME280;40269;46.742;9.778;2023-01-28T12:11:35;85428.30;;;-1.63;27.72
36520;BME280;40269;46.742;9.778;2023-01-28T12:14:12;85428.71;;;0.55;27.61
36520;BME280;40269;46.742;9.778;2023-01-28T12:16:50;85421.77;;;3.37;25.95
36520;BME280;40269;46.742;9.778;2023-01-28T12:19:33;85426.84;;;-0.25;25.68
36520;BME280;40269;46.742;9.778;2023-01-28T12:22:16;85425.59;;;0.50;25.74
36520;BME280;40269;46.742;9.778;2023-01-28T12:25:00;85425.79;;;1.54;24.08
36520;BME280;40269;46.742;9.778;2023-01-28T12:27:39;85423.26;;;3.55;23.27
36520;BME280;40269;46.742;9.778;2023-01-28T12:30:22;85428.92;;;1.35;24.11
36520;BME280;40269;46.742;9.778;2023-01-28T12:33:02;85427.56;;;2.97;21.99
36520;BME280;40269;46.742;9.778;2023-01-28T12:35:48;85423.50;;;4.88;23.79
36520;BME280;40269;46.742;9.778;2023-01-28T12:38:26;85425.57;;;5.60;22.77
36520;BME280;40269;46.742;9.778;2023-01-28T12:41:02;85425.45;;;4.11;23.43
36520;BME280;40269;46.742;9.778;2023-01-28T12:43:41;85426.22;;;5.28;21.01
36520;BME280;40269;46.742;9.778;2023-01-28T12:46:15;85429.16;;;2.67;21.97
36520;BME280;40269;46.742;9.778;2023-01-28T12:48:47;85427.29;;;0.95;22.48
36520;BME280;40269;46.742;9.778;2023-01-28T12:51:19;85425.83;;;2.58;23.79
36520;BME280;40269;46.742;9.778;2023-01-28T12:53:52;85419.89;;;3.14;21.86
36520;BME280;40269;46.742;9.778;2023-01-28T12:56:24;85418.07;;;2.91;21.55
36520;BME280;40269;46.742;9.778;2023-01-28T12:58:57;85417.84;;;6.01;20.38
36520;BME280;40269;46.742;9.778;2023-01-28T13:01:33;85415.89;;;6.41;18.49
36520;BME280;40269;46.742;9.778;2023-01-28T13:04:07;85414.59;;;3.02;20.46
36520;BME280;40269;46.742;9.778;2023-01-28T13:06:40;85414.84;;;3.85;19.48
36520;BME280;40269;46.742;9.778;2023-01-28T13:09:15;85418.26;;;7.01;18.93
36520;BME280;40269;46.742;9.778;2023-01-28T13:11:44;85418.90;;;7.99;17.78